sensor_id;sensor_type;location;lat;lon;timestamp;P1;durP1;ratioP1;P2;durP2;ratioP2
5662;SDS011;2854;42.692;23.364;2022-08-25T00:01:18;8.83;;;4.67;;
5662;SDS011;2854;42.692;23.364;2022-08-25T00:03:44;6.10;;;5.20;;
5662;SDS011;2854;42.692;23.364;2022-08-25T00:06:10;7.80;;;5.13;;
5662;SDS011;2854;42.692;23.364;2022-08-25T00:08:36;10.80;;;5.80;;
5662;SDS011;2854;42.692;23.364;2022-08-25T00:11:23;5.73;;;5.20;;
5662;SDS011;2854;42.692;23.364;2022-08-25T00:13:49;13.33;;;5.90;;
5662;SDS011;2854;42.692;23.364;2022-08-25T00:16:15;6.50;;;4.90;;
5662;SDS011;2854;42.692;23.364;2022-08-25T00:18:42;8.87;;;5.40;;
5662;SDS011;2854;42.692;23.364;2022-08-25T00:21:09;6.53;;;4.97;;
5662;SDS011;2854;42.692;23.364;2022-08-25T00:23:35;9.83;;;5.27;;
5662;SDS011;2854;42.692;23.364;2022-08-25T00:26:00;7.00;;;5.30;;
5662;SDS011;2854;42.692;23.364;2022-08-25T00:28:26;7.00;;;4.93;;
5662;SDS011;2854;42.692;23.364;2022-08-25T00:30:51;10.07;;;5.90;;
5662;SDS011;2854;42.692;23.364;2022-08-25T00:33:16;6.17;;;4.57;;
5662;SDS011;2854;42.692;23.364;2022-08-25T00:35:42;7.87;;;4.80;;
5662;SDS011;2854;42.692;23.364;2022-08-25T00:38:08;12.00;;;5.40;;
5662;SDS011;2854;42.692;23.364;2022-08-25T00:40:34;7.23;;;5.50;;
5662;SDS011;2854;42.692;23.364;2022-08-25T00:43:00;10.30;;;5.33;;
5662;SDS011;2854;42.692;23.364;2022-08-25T00:45:26;6.97;;;5.67;;
5662;SDS011;2854;42.692;23.364;2022-08-25T00:47:52;11.40;;;6.00;;
5662;SDS011;2854;42.692;23.364;2022-08-25T00:50:17;9.17;;;5.77;;
5662;SDS011;2854;42.692;23.364;2022-08-25T00:52:47;7.30;;;5.80;;
5662;SDS011;2854;42.692;23.364;2022-08-25T00:55:56;7.03;;;5.40;;
5662;SDS011;2854;42.692;23.364;2022-08-25T00:58:15;7.13;;;5.43;;
5662;SDS011;2854;42.692;23.364;2022-08-25T01:00:42;10.57;;;6.10;;
5662;SDS011;2854;42.692;23.364;2022-08-25T01:03:08;30.00;;;16.13;;
5662;SDS011;2854;42.692;23.364;2022-08-25T01:05:33;11.67;;;7.37;;
5662;SDS011;2854;42.692;23.364;2022-08-25T01:07:59;9.50;;;5.37;;
5662;SDS011;2854;42.692;23.364;2022-08-25T01:10:27;6.10;;;5.50;;
5662;SDS011;2854;42.692;23.364;2022-08-25T01:12:53;7.70;;;5.10;;
5662;SDS011;2854;42.692;23.364;2022-08-25T01:15:21;6.50;;;4.13;;
5662;SDS011;2854;42.692;23.364;2022-08-25T01:17:48;6.53;;;5.00;;
5662;SDS011;2854;42.692;23.364;2022-08-25T01:20:14;12.63;;;5.43;;
5662;SDS011;2854;42.692;23.364;2022-08-25T01:22:40;8.67;;;6.10;;
5662;SDS011;2854;42.692;23.364;2022-08-25T01:27:46;10.70;;;6.03;;
5662;SDS011;2854;42.692;23.364;2022-08-25T01:30:12;12.17;;;6.40;;
5662;SDS011;2854;42.692;23.364;2022-08-25T01:32:38;11.50;;;5.80;;
5662;SDS011;2854;42.692;23.364;2022-08-25T01:35:04;9.33;;;5.90;;
5662;SDS011;2854;42.692;23.364;2022-08-25T01:37:29;8.07;;;5.70;;
5662;SDS011;2854;42.692;23.364;2022-08-25T01:39:58;19.87;;;6.90;;
5662;SDS011;2854;42.692;23.364;2022-08-25T01:44:49;9.30;;;5.00;;
5662;SDS011;2854;42.692;23.364;2022-08-25T01:47:14;9.50;;;5.87;;
5662;SDS011;2854;42.692;23.364;2022-08-25T01:49:40;8.57;;;6.13;;
5662;SDS011;2854;42.692;23.364;2022-08-25T01:52:12;8.00;;;5.87;;
5662;SDS011;2854;42.692;23.364;2022-08-25T01:54:39;7.10;;;5.10;;
5662;SDS011;2854;42.692;23.364;2022-08-25T01:57:04;6.03;;;5.30;;
5662;SDS011;2854;42.692;23.364;2022-08-25T01:59:30;12.23;;;5.57;;
5662;SDS011;2854;42.692;23.364;2022-08-25T02:01:55;12.43;;;5.90;;
5662;SDS011;2854;42.692;23.364;2022-08-25T02:04:20;14.40;;;4.73;;
5662;SDS011;2854;42.692;23.364;2022-08-25T02:06:46;10.50;;;4.93;;
5662;SDS011;2854;42.692;23.364;2022-08-25T02:09:12;7.90;;;5.30;;
5662;SDS011;2854;42.692;23.364;2022-08-25T02:11:39;6.40;;;5.13;;
5662;SDS011;2854;42.692;23.364;2022-08-25T02:14:05;10.63;;;5.40;;
5662;SDS011;2854;42.692;23.364;2022-08-25T02:16:31;7.40;;;4.87;;
5662;SDS011;2854;42.692;23.364;2022-08-25T02:18:57;9.07;;;5.27;;
5662;SDS011;2854;42.692;23.364;2022-08-25T02:21:23;10.33;;;5.17;;
5662;SDS011;2854;42.692;23.364;2022-08-25T02:23:48;6.03;;;4.63;;
5662;SDS011;2854;42.692;23.364;2022-08-25T02:26:14;7.27;;;4.93;;
5662;SDS011;2854;42.692;23.364;2022-08-25T02:28:47;5.23;;;4.83;;
5662;SDS011;2854;42.692;23.364;2022-08-25T02:31:12;5.90;;;4.73;;
5662;SDS011;2854;42.692;23.364;2022-08-25T02:33:37;7.33;;;4.67;;
5662;SDS011;2854;42.692;23.364;2022-08-25T02:36:04;6.87;;;4.37;;
5662;SDS011;2854;42.692;23.364;2022-08-25T02:38:29;6.83;;;4.03;;
5662;SDS011;2854;42.692;23.364;2022-08-25T02:40:55;6.20;;;4.37;;
5662;SDS011;2854;42.692;23.364;2022-08-25T02:43:21;9.40;;;4.80;;
5662;SDS011;2854;42.692;23.364;2022-08-25T02:45:46;8.80;;;4.67;;
5662;SDS011;2854;42.692;23.364;2022-08-25T02:48:12;11.80;;;5.07;;
5662;SDS011;2854;42.692;23.364;2022-08-25T02:50:37;9.23;;;4.70;;
5662;SDS011;2854;42.692;23.364;2022-08-25T02:53:02;5.97;;;4.37;;
5662;SDS011;2854;42.692;23.364;2022-08-25T02:55:28;4.83;;;4.33;;
5662;SDS011;2854;42.692;23.364;2022-08-25T02:57:53;9.17;;;4.83;;
5662;SDS011;2854;42.692;23.364;2022-08-25T03:00:18;11.27;;;5.13;;
5662;SDS011;2854;42.692;23.364;2022-08-25T03:02:44;11.40;;;4.50;;
5662;SDS011;2854;42.692;23.364;2022-08-25T03:05:11;5.10;;;4.10;;
5662;SDS011;2854;42.692;23.364;2022-08-25T03:07:37;5.13;;;4.03;;
5662;SDS011;2854;42.692;23.364;2022-08-25T03:10:09;13.00;;;5.43;;
5662;SDS011;2854;42.692;23.364;2022-08-25T03:12:36;7.47;;;4.70;;
5662;SDS011;2854;42.692;23.364;2022-08-25T03:15:01;6.27;;;5.03;;
5662;SDS011;2854;42.692;23.364;2022-08-25T03:17:26;8.00;;;5.00;;
5662;SDS011;2854;42.692;23.364;2022-08-25T03:19:52;5.00;;;4.30;;
5662;SDS011;2854;42.692;23.364;2022-08-25T03:22:17;15.13;;;4.80;;
5662;SDS011;2854;42.692;23.364;2022-08-25T03:24:42;4.47;;;4.13;;
5662;SDS011;2854;42.692;23.364;2022-08-25T03:27:08;6.30;;;4.80;;
5662;SDS011;2854;42.692;23.364;2022-08-25T03:29:33;14.20;;;5.33;;
5662;SDS011;2854;42.692;23.364;2022-08-25T03:31:58;10.80;;;5.20;;
5662;SDS011;2854;42.692;23.364;2022-08-25T03:34:24;8.00;;;4.90;;
5662;SDS011;2854;42.692;23.364;2022-08-25T03:36:51;4.90;;;4.50;;
5662;SDS011;2854;42.692;23.364;2022-08-25T03:39:18;9.50;;;5.30;;
5662;SDS011;2854;42.692;23.364;2022-08-25T03:41:44;8.93;;;4.07;;
5662;SDS011;2854;42.692;23.364;2022-08-25T03:44:09;10.43;;;5.17;;
5662;SDS011;2854;42.692;23.364;2022-08-25T03:46:42;6.00;;;5.30;;
5662;SDS011;2854;42.692;23.364;2022-08-25T03:49:09;7.40;;;4.50;;
5662;SDS011;2854;42.692;23.364;2022-08-25T03:51:37;6.37;;;4.40;;
5662;SDS011;2854;42.692;23.364;2022-08-25T03:54:04;5.23;;;4.73;;
5662;SDS011;2854;42.692;23.364;2022-08-25T03:56:30;7.97;;;4.70;;
5662;SDS011;2854;42.692;23.364;2022-08-25T03:58:55;11.60;;;4.87;;
5662;SDS011;2854;42.692;23.364;2022-08-25T04:01:21;8.47;;;4.70;;
5662;SDS011;2854;42.692;23.364;2022-08-25T04:03:46;5.80;;;4.57;;
5662;SDS011;2854;42.692;23.364;2022-08-25T04:06:12;10.57;;;4.30;;
5662;SDS011;2854;42.692;23.364;2022-08-25T04:08:37;5.73;;;4.83;;
5662;SDS011;2854;42.692;23.364;2022-08-25T04:11:07;8.60;;;6.30;;
5662;SDS011;2854;42.692;23.364;2022-08-25T04:13:33;12.07;;;5.90;;
5662;SDS011;2854;42.692;23.364;2022-08-25T04:15:58;12.13;;;5.90;;
5662;SDS011;2854;42.692;23.364;2022-08-25T04:18:23;14.53;;;5.03;;
5662;SDS011;2854;42.692;23.364;2022-08-25T04:20:49;8.50;;;4.83;;
5662;SDS011;2854;42.692;23.364;2022-08-25T04:23:14;5.67;;;4.63;;
5662;SDS011;2854;42.692;23.364;2022-08-25T04:25:40;5.63;;;4.53;;
5662;SDS011;2854;42.692;23.364;2022-08-25T04:28:08;5.50;;;5.00;;
5662;SDS011;2854;42.692;23.364;2022-08-25T04:30:33;5.40;;;4.90;;
5662;SDS011;2854;42.692;23.364;2022-08-25T04:32:59;7.60;;;4.47;;
5662;SDS011;2854;42.692;23.364;2022-08-25T04:35:24;5.40;;;4.50;;
5662;SDS011;2854;42.692;23.364;2022-08-25T04:37:50;11.50;;;4.90;;
5662;SDS011;2854;42.692;23.364;2022-08-25T04:40:15;5.50;;;4.13;;
5662;SDS011;2854;42.692;23.364;2022-08-25T04:42:40;9.00;;;5.07;;
5662;SDS011;2854;42.692;23.364;2022-08-25T04:45:06;6.90;;;5.50;;
5662;SDS011;2854;42.692;23.364;2022-08-25T04:47:35;11.27;;;6.10;;
5662;SDS011;2854;42.692;23.364;2022-08-25T04:50:00;6.53;;;4.93;;
5662;SDS011;2854;42.692;23.364;2022-08-25T04:52:25;10.70;;;6.33;;
5662;SDS011;2854;42.692;23.364;2022-08-25T04:54:50;13.50;;;5.50;;
5662;SDS011;2854;42.692;23.364;2022-08-25T04:57:16;5.80;;;5.20;;
5662;SDS011;2854;42.692;23.364;2022-08-25T04:59:41;7.50;;;5.50;;
5662;SDS011;2854;42.692;23.364;2022-08-25T05:02:06;7.30;;;5.83;;
5662;SDS011;2854;42.692;23.364;2022-08-25T05:04:33;17.10;;;4.90;;
5662;SDS011;2854;42.692;23.364;2022-08-25T05:06:58;8.63;;;5.03;;
5662;SDS011;2854;42.692;23.364;2022-08-25T05:09:24;10.07;;;5.80;;
5662;SDS011;2854;42.692;23.364;2022-08-25T05:11:49;8.20;;;6.10;;
5662;SDS011;2854;42.692;23.364;2022-08-25T05:14:14;8.80;;;5.50;;
5662;SDS011;2854;42.692;23.364;2022-08-25T05:16:45;6.43;;;5.70;;
5662;SDS011;2854;42.692;23.364;2022-08-25T05:19:10;7.57;;;5.33;;
5662;SDS011;2854;42.692;23.364;2022-08-25T05:21:35;7.83;;;4.80;;
5662;SDS011;2854;42.692;23.364;2022-08-25T05:24:01;6.17;;;5.57;;
5662;SDS011;2854;42.692;23.364;2022-08-25T05:26:28;7.60;;;5.03;;
5662;SDS011;2854;42.692;23.364;2022-08-25T05:28:54;5.20;;;4.70;;
5662;SDS011;2854;42.692;23.364;2022-08-25T05:31:21;10.80;;;5.17;;
5662;SDS011;2854;42.692;23.364;2022-08-25T05:33:46;13.10;;;5.60;;
5662;SDS011;2854;42.692;23.364;2022-08-25T05:36:12;12.73;;;5.43;;
5662;SDS011;2854;42.692;23.364;2022-08-25T05:38:38;5.70;;;5.20;;
5662;SDS011;2854;42.692;23.364;2022-08-25T05:41:05;9.00;;;5.60;;
5662;SDS011;2854;42.692;23.364;2022-08-25T05:43:31;9.47;;;4.60;;
5662;SDS011;2854;42.692;23.364;2022-08-25T05:45:57;5.87;;;4.97;;
5662;SDS011;2854;42.692;23.364;2022-08-25T05:48:23;8.20;;;4.93;;
5662;SDS011;2854;42.692;23.364;2022-08-25T05:50:52;7.60;;;5.40;;
5662;SDS011;2854;42.692;23.364;2022-08-25T05:53:18;7.07;;;4.47;;
5662;SDS011;2854;42.692;23.364;2022-08-25T05:55:44;7.53;;;5.27;;
5662;SDS011;2854;42.692;23.364;2022-08-25T05:58:09;6.70;;;4.90;;
5662;SDS011;2854;42.692;23.364;2022-08-25T06:00:36;9.63;;;5.60;;
5662;SDS011;2854;42.692;23.364;2022-08-25T06:03:01;7.63;;;4.93;;
5662;SDS011;2854;42.692;23.364;2022-08-25T06:05:26;6.43;;;4.50;;
5662;SDS011;2854;42.692;23.364;2022-08-25T06:07:51;6.70;;;5.33;;
5662;SDS011;2854;42.692;23.364;2022-08-25T06:10:17;5.63;;;5.13;;
5662;SDS011;2854;42.692;23.364;2022-08-25T06:12:44;6.50;;;5.50;;
5662;SDS011;2854;42.692;23.364;2022-08-25T06:15:13;14.03;;;5.90;;
5662;SDS011;2854;42.692;23.364;2022-08-25T06:17:39;5.53;;;5.03;;
5662;SDS011;2854;42.692;23.364;2022-08-25T06:20:08;5.80;;;5.20;;
5662;SDS011;2854;42.692;23.364;2022-08-25T06:22:34;7.30;;;4.87;;
5662;SDS011;2854;42.692;23.364;2022-08-25T06:24:59;8.27;;;6.03;;
5662;SDS011;2854;42.692;23.364;2022-08-25T06:27:25;5.07;;;4.60;;
5662;SDS011;2854;42.692;23.364;2022-08-25T06:29:50;7.50;;;4.63;;
5662;SDS011;2854;42.692;23.364;2022-08-25T06:32:15;5.17;;;4.70;;
5662;SDS011;2854;42.692;23.364;2022-08-25T06:34:40;8.60;;;4.67;;
5662;SDS011;2854;42.692;23.364;2022-08-25T06:37:06;7.43;;;4.77;;
5662;SDS011;2854;42.692;23.364;2022-08-25T06:39:31;7.03;;;5.60;;
5662;SDS011;2854;42.692;23.364;2022-08-25T06:41:57;6.57;;;5.87;;
5662;SDS011;2854;42.692;23.364;2022-08-25T06:44:22;16.83;;;5.50;;
5662;SDS011;2854;42.692;23.364;2022-08-25T06:46:49;6.07;;;5.10;;
5662;SDS011;2854;42.692;23.364;2022-08-25T06:49:14;12.87;;;5.80;;
5662;SDS011;2854;42.692;23.364;2022-08-25T06:51:40;5.93;;;4.40;;
5662;SDS011;2854;42.692;23.364;2022-08-25T06:54:06;10.63;;;6.07;;
5662;SDS011;2854;42.692;23.364;2022-08-25T06:56:32;8.80;;;5.90;;
5662;SDS011;2854;42.692;23.364;2022-08-25T06:58:59;6.60;;;4.90;;
5662;SDS011;2854;42.692;23.364;2022-08-25T07:01:25;9.00;;;6.23;;
5662;SDS011;2854;42.692;23.364;2022-08-25T07:03:51;9.33;;;5.60;;
5662;SDS011;2854;42.692;23.364;2022-08-25T07:06:19;8.13;;;6.00;;
5662;SDS011;2854;42.692;23.364;2022-08-25T07:08:45;8.70;;;6.20;;
5662;SDS011;2854;42.692;23.364;2022-08-25T07:11:11;5.60;;;5.03;;
5662;SDS011;2854;42.692;23.364;2022-08-25T07:13:37;9.13;;;5.37;;
5662;SDS011;2854;42.692;23.364;2022-08-25T07:16:03;8.27;;;5.90;;
5662;SDS011;2854;42.692;23.364;2022-08-25T07:18:29;7.00;;;5.27;;
5662;SDS011;2854;42.692;23.364;2022-08-25T07:20:55;15.17;;;9.20;;
5662;SDS011;2854;42.692;23.364;2022-08-25T07:23:21;8.10;;;5.30;;
5662;SDS011;2854;42.692;23.364;2022-08-25T07:25:46;7.53;;;5.10;;
5662;SDS011;2854;42.692;23.364;2022-08-25T07:28:12;7.10;;;5.30;;
5662;SDS011;2854;42.692;23.364;2022-08-25T07:30:37;9.20;;;5.60;;
5662;SDS011;2854;42.692;23.364;2022-08-25T07:33:03;14.90;;;6.33;;
5662;SDS011;2854;42.692;23.364;2022-08-25T07:35:28;7.53;;;6.30;;
5662;SDS011;2854;42.692;23.364;2022-08-25T07:37:56;8.47;;;5.33;;
5662;SDS011;2854;42.692;23.364;2022-08-25T07:40:26;9.50;;;6.33;;
5662;SDS011;2854;42.692;23.364;2022-08-25T07:42:53;8.50;;;5.37;;
5662;SDS011;2854;42.692;23.364;2022-08-25T07:45:19;9.77;;;5.47;;
5662;SDS011;2854;42.692;23.364;2022-08-25T07:47:45;9.03;;;5.43;;
5662;SDS011;2854;42.692;23.364;2022-08-25T07:50:11;7.77;;;4.33;;
5662;SDS011;2854;42.692;23.364;2022-08-25T07:52:37;6.67;;;4.93;;
5662;SDS011;2854;42.692;23.364;2022-08-25T07:55:03;13.50;;;5.83;;
5662;SDS011;2854;42.692;23.364;2022-08-25T07:57:28;5.30;;;4.80;;
5662;SDS011;2854;42.692;23.364;2022-08-25T07:59:54;14.03;;;5.80;;
5662;SDS011;2854;42.692;23.364;2022-08-25T08:02:19;15.73;;;5.20;;
5662;SDS011;2854;42.692;23.364;2022-08-25T08:04:49;7.73;;;4.60;;
5662;SDS011;2854;42.692;23.364;2022-08-25T08:07:15;5.97;;;4.83;;
5662;SDS011;2854;42.692;23.364;2022-08-25T08:09:41;9.20;;;3.73;;
5662;SDS011;2854;42.692;23.364;2022-08-25T08:12:06;6.17;;;4.23;;
5662;SDS011;2854;42.692;23.364;2022-08-25T08:14:32;5.73;;;4.13;;
5662;SDS011;2854;42.692;23.364;2022-08-25T08:16:58;6.20;;;4.13;;
5662;SDS011;2854;42.692;23.364;2022-08-25T08:19:23;7.77;;;4.00;;
5662;SDS011;2854;42.692;23.364;2022-08-25T08:21:49;5.37;;;3.90;;
5662;SDS011;2854;42.692;23.364;2022-08-25T08:24:14;9.23;;;3.93;;
5662;SDS011;2854;42.692;23.364;2022-08-25T08:26:40;7.07;;;4.20;;
5662;SDS011;2854;42.692;23.364;2022-08-25T08:29:05;5.73;;;4.30;;
5662;SDS011;2854;42.692;23.364;2022-08-25T08:31:30;5.07;;;3.50;;
5662;SDS011;2854;42.692;23.364;2022-08-25T08:33:56;4.80;;;3.57;;
5662;SDS011;2854;42.692;23.364;2022-08-25T08:36:22;7.53;;;3.60;;
5662;SDS011;2854;42.692;23.364;2022-08-25T08:38:48;9.30;;;4.87;;
5662;SDS011;2854;42.692;23.364;2022-08-25T08:49:36;6.13;;;3.03;;
5662;SDS011;2854;42.692;23.364;2022-08-25T08:52:03;4.53;;;2.70;;
5662;SDS011;2854;42.692;23.364;2022-08-25T08:54:31;8.73;;;4.27;;
5662;SDS011;2854;42.692;23.364;2022-08-25T08:57:07;14.57;;;3.50;;
5662;SDS011;2854;42.692;23.364;2022-08-25T08:59:45;9.17;;;3.23;;
5662;SDS011;2854;42.692;23.364;2022-08-25T09:02:13;6.83;;;3.23;;
5662;SDS011;2854;42.692;23.364;2022-08-25T10:11:28;3.33;;;2.33;;
5662;SDS011;2854;42.692;23.364;2022-08-25T10:14:55;8.30;;;2.03;;
5662;SDS011;2854;42.692;23.364;2022-08-25T10:16:49;3.93;;;2.10;;
5662;SDS011;2854;42.692;23.364;2022-08-25T10:21:42;29.43;;;2.60;;
5662;SDS011;2854;42.692;23.364;2022-08-25T10:24:08;4.70;;;2.50;;
5662;SDS011;2854;42.692;23.364;2022-08-25T10:35:53;10.03;;;1.90;;
5662;SDS011;2854;42.692;23.364;2022-08-25T10:38:05;3.57;;;2.70;;
5662;SDS011;2854;42.692;23.364;2022-08-25T10:43:05;4.60;;;1.97;;
5662;SDS011;2854;42.692;23.364;2022-08-25T10:45:55;5.20;;;2.00;;
5662;SDS011;2854;42.692;23.364;2022-08-25T10:50:57;4.43;;;1.90;;
5662;SDS011;2854;42.692;23.364;2022-08-25T11:01:23;4.40;;;2.80;;
5662;SDS011;2854;42.692;23.364;2022-08-25T11:03:54;7.93;;;2.23;;
5662;SDS011;2854;42.692;23.364;2022-08-25T11:08:58;1.90;;;1.80;;
5662;SDS011;2854;42.692;23.364;2022-08-25T11:11:29;2.30;;;2.10;;
5662;SDS011;2854;42.692;23.364;2022-08-25T11:14:00;10.43;;;2.23;;
5662;SDS011;2854;42.692;23.364;2022-08-25T11:19:01;2.40;;;1.90;;
5662;SDS011;2854;42.692;23.364;2022-08-25T11:24:00;6.33;;;2.50;;
5662;SDS011;2854;42.692;23.364;2022-08-25T11:26:29;7.70;;;2.67;;
5662;SDS011;2854;42.692;23.364;2022-08-25T11:29:32;4.03;;;2.30;;
5662;SDS011;2854;42.692;23.364;2022-08-25T11:31:51;3.87;;;2.70;;
5662;SDS011;2854;42.692;23.364;2022-08-25T11:34:17;3.60;;;2.10;;
5662;SDS011;2854;42.692;23.364;2022-08-25T11:36:53;4.90;;;2.27;;
5662;SDS011;2854;42.692;23.364;2022-08-25T11:52:04;3.53;;;2.40;;
5662;SDS011;2854;42.692;23.364;2022-08-25T11:57:02;2.90;;;2.60;;
5662;SDS011;2854;42.692;23.364;2022-08-25T12:04:56;4.47;;;2.40;;
5662;SDS011;2854;42.692;23.364;2022-08-25T12:07:22;2.30;;;2.10;;
5662;SDS011;2854;42.692;23.364;2022-08-25T12:14:52;10.23;;;2.03;;
5662;SDS011;2854;42.692;23.364;2022-08-25T12:17:23;5.27;;;2.17;;
5662;SDS011;2854;42.692;23.364;2022-08-25T12:19:51;9.40;;;2.60;;
5662;SDS011;2854;42.692;23.364;2022-08-25T12:35:09;2.50;;;2.20;;
5662;SDS011;2854;42.692;23.364;2022-08-25T12:40:52;2.90;;;1.57;;
5662;SDS011;2854;42.692;23.364;2022-08-25T12:51:05;4.77;;;1.87;;
5662;SDS011;2854;42.692;23.364;2022-08-25T12:53:33;4.27;;;2.17;;
5662;SDS011;2854;42.692;23.364;2022-08-25T12:56:00;7.47;;;2.47;;
5662;SDS011;2854;42.692;23.364;2022-08-25T12:58:27;3.57;;;1.87;;
5662;SDS011;2854;42.692;23.364;2022-08-25T13:01:04;4.40;;;1.83;;
5662;SDS011;2854;42.692;23.364;2022-08-25T13:06:14;2.70;;;2.10;;
5662;SDS011;2854;42.692;23.364;2022-08-25T13:11:31;2.30;;;2.20;;
5662;SDS011;2854;42.692;23.364;2022-08-25T13:16:29;3.40;;;1.73;;
5662;SDS011;2854;42.692;23.364;2022-08-25T13:18:55;1.90;;;1.80;;
5662;SDS011;2854;42.692;23.364;2022-08-25T13:23:49;2.97;;;1.57;;
5662;SDS011;2854;42.692;23.364;2022-08-25T13:26:16;4.33;;;2.47;;
5662;SDS011;2854;42.692;23.364;2022-08-25T13:28:56;8.53;;;2.10;;
5662;SDS011;2854;42.692;23.364;2022-08-25T13:31:23;4.20;;;2.03;;
5662;SDS011;2854;42.692;23.364;2022-08-25T13:36:17;3.23;;;2.10;;
5662;SDS011;2854;42.692;23.364;2022-08-25T13:39:15;4.40;;;1.77;;
5662;SDS011;2854;42.692;23.364;2022-08-25T13:41:47;6.20;;;2.50;;
5662;SDS011;2854;42.692;23.364;2022-08-25T13:44:13;2.57;;;1.80;;
5662;SDS011;2854;42.692;23.364;2022-08-25T13:46:39;3.17;;;1.83;;
5662;SDS011;2854;42.692;23.364;2022-08-25T13:49:06;5.20;;;1.90;;
5662;SDS011;2854;42.692;23.364;2022-08-25T13:51:31;3.90;;;2.03;;
5662;SDS011;2854;42.692;23.364;2022-08-25T13:54:39;5.77;;;2.50;;
5662;SDS011;2854;42.692;23.364;2022-08-25T13:56:45;3.47;;;2.30;;
5662;SDS011;2854;42.692;23.364;2022-08-25T13:59:35;2.17;;;1.80;;
5662;SDS011;2854;42.692;23.364;2022-08-25T14:02:02;6.27;;;2.17;;
5662;SDS011;2854;42.692;23.364;2022-08-25T14:15:35;7.37;;;2.10;;
5662;SDS011;2854;42.692;23.364;2022-08-25T14:17:47;6.70;;;2.20;;
5662;SDS011;2854;42.692;23.364;2022-08-25T14:20:18;8.53;;;2.20;;
5662;SDS011;2854;42.692;23.364;2022-08-25T14:22:45;2.73;;;2.50;;
5662;SDS011;2854;42.692;23.364;2022-08-25T14:25:11;7.73;;;2.53;;
5662;SDS011;2854;42.692;23.364;2022-08-25T14:27:40;2.33;;;2.00;;
5662;SDS011;2854;42.692;23.364;2022-08-25T14:30:05;4.87;;;2.00;;
5662;SDS011;2854;42.692;23.364;2022-08-25T14:32:30;7.33;;;2.23;;
5662;SDS011;2854;42.692;23.364;2022-08-25T14:34:56;2.87;;;1.53;;
5662;SDS011;2854;42.692;23.364;2022-08-25T14:37:21;3.77;;;2.50;;
5662;SDS011;2854;42.692;23.364;2022-08-25T14:39:46;14.20;;;2.60;;
5662;SDS011;2854;42.692;23.364;2022-08-25T14:42:12;2.27;;;2.17;;
5662;SDS011;2854;42.692;23.364;2022-08-25T14:44:37;2.60;;;1.80;;
5662;SDS011;2854;42.692;23.364;2022-08-25T14:47:03;2.60;;;2.40;;
5662;SDS011;2854;42.692;23.364;2022-08-25T14:49:31;6.60;;;2.10;;
5662;SDS011;2854;42.692;23.364;2022-08-25T14:52:18;2.00;;;1.90;;
5662;SDS011;2854;42.692;23.364;2022-08-25T14:54:45;9.93;;;1.93;;
5662;SDS011;2854;42.692;23.364;2022-08-25T14:57:11;3.03;;;1.50;;
5662;SDS011;2854;42.692;23.364;2022-08-25T14:59:37;6.90;;;2.27;;
5662;SDS011;2854;42.692;23.364;2022-08-25T15:02:03;5.43;;;2.20;;
5662;SDS011;2854;42.692;23.364;2022-08-25T15:04:31;11.13;;;2.30;;
5662;SDS011;2854;42.692;23.364;2022-08-25T15:06:57;3.40;;;2.43;;
5662;SDS011;2854;42.692;23.364;2022-08-25T15:09:23;5.80;;;2.40;;
5662;SDS011;2854;42.692;23.364;2022-08-25T15:11:50;3.10;;;2.67;;
5662;SDS011;2854;42.692;23.364;2022-08-25T15:14:16;12.20;;;2.30;;
5662;SDS011;2854;42.692;23.364;2022-08-25T15:16:47;2.33;;;2.03;;
5662;SDS011;2854;42.692;23.364;2022-08-25T15:19:14;2.20;;;1.87;;
5662;SDS011;2854;42.692;23.364;2022-08-25T15:21:40;4.67;;;2.03;;
5662;SDS011;2854;42.692;23.364;2022-08-25T15:24:06;3.50;;;2.40;;
5662;SDS011;2854;42.692;23.364;2022-08-25T15:26:34;3.63;;;1.87;;
5662;SDS011;2854;42.692;23.364;2022-08-25T15:29:03;3.90;;;2.50;;
5662;SDS011;2854;42.692;23.364;2022-08-25T15:31:28;10.27;;;2.30;;
5662;SDS011;2854;42.692;23.364;2022-08-25T15:33:53;6.50;;;2.17;;
5662;SDS011;2854;42.692;23.364;2022-08-25T15:36:20;4.10;;;1.93;;
5662;SDS011;2854;42.692;23.364;2022-08-25T15:38:46;2.13;;;2.00;;
5662;SDS011;2854;42.692;23.364;2022-08-25T15:41:12;10.70;;;2.40;;
5662;SDS011;2854;42.692;23.364;2022-08-25T15:43:38;3.97;;;1.97;;
5662;SDS011;2854;42.692;23.364;2022-08-25T15:46:03;2.43;;;2.20;;
5662;SDS011;2854;42.692;23.364;2022-08-25T15:48:30;4.10;;;2.70;;
5662;SDS011;2854;42.692;23.364;2022-08-25T15:50:56;6.80;;;2.13;;
5662;SDS011;2854;42.692;23.364;2022-08-25T15:53:24;8.63;;;2.30;;
5662;SDS011;2854;42.692;23.364;2022-08-25T15:55:50;9.17;;;2.30;;
5662;SDS011;2854;42.692;23.364;2022-08-25T15:58:16;3.47;;;2.10;;
5662;SDS011;2854;42.692;23.364;2022-08-25T16:00:42;2.90;;;2.50;;
5662;SDS011;2854;42.692;23.364;2022-08-25T16:03:07;4.03;;;1.80;;
5662;SDS011;2854;42.692;23.364;2022-08-25T16:05:36;3.93;;;2.03;;
5662;SDS011;2854;42.692;23.364;2022-08-25T16:08:02;5.00;;;2.50;;
5662;SDS011;2854;42.692;23.364;2022-08-25T16:10:27;3.23;;;2.20;;
5662;SDS011;2854;42.692;23.364;2022-08-25T16:12:56;1.80;;;1.70;;
5662;SDS011;2854;42.692;23.364;2022-08-25T16:15:21;5.23;;;3.00;;
5662;SDS011;2854;42.692;23.364;2022-08-25T16:17:47;2.80;;;2.40;;
5662;SDS011;2854;42.692;23.364;2022-08-25T16:20:14;4.80;;;2.40;;
5662;SDS011;2854;42.692;23.364;2022-08-25T16:22:40;4.67;;;2.20;;
5662;SDS011;2854;42.692;23.364;2022-08-25T16:25:05;2.20;;;2.10;;
5662;SDS011;2854;42.692;23.364;2022-08-25T16:27:31;2.60;;;2.40;;
5662;SDS011;2854;42.692;23.364;2022-08-25T16:29:56;6.60;;;3.00;;
5662;SDS011;2854;42.692;23.364;2022-08-25T16:32:21;3.70;;;2.50;;
5662;SDS011;2854;42.692;23.364;2022-08-25T16:34:47;4.53;;;2.50;;
5662;SDS011;2854;42.692;23.364;2022-08-25T16:37:12;2.57;;;2.37;;
5662;SDS011;2854;42.692;23.364;2022-08-25T16:39:37;6.00;;;2.60;;
5662;SDS011;2854;42.692;23.364;2022-08-25T16:42:08;4.13;;;3.23;;
5662;SDS011;2854;42.692;23.364;2022-08-25T16:44:33;8.03;;;3.10;;
5662;SDS011;2854;42.692;23.364;2022-08-25T16:46:59;5.43;;;2.97;;
5662;SDS011;2854;42.692;23.364;2022-08-25T16:49:24;5.83;;;2.80;;
5662;SDS011;2854;42.692;23.364;2022-08-25T16:51:50;2.33;;;2.20;;
5662;SDS011;2854;42.692;23.364;2022-08-25T16:54:15;2.67;;;2.47;;
5662;SDS011;2854;42.692;23.364;2022-08-25T16:56:59;5.20;;;2.87;;
5662;SDS011;2854;42.692;23.364;2022-08-25T16:59:25;5.23;;;2.57;;
5662;SDS011;2854;42.692;23.364;2022-08-25T17:01:50;6.23;;;2.37;;
5662;SDS011;2854;42.692;23.364;2022-08-25T17:04:16;8.13;;;2.70;;
5662;SDS011;2854;42.692;23.364;2022-08-25T17:06:41;19.17;;;8.00;;
5662;SDS011;2854;42.692;23.364;2022-08-25T17:09:08;4.00;;;3.63;;
5662;SDS011;2854;42.692;23.364;2022-08-25T17:11:35;4.63;;;3.57;;
5662;SDS011;2854;42.692;23.364;2022-08-25T17:14:06;5.33;;;3.10;;
5662;SDS011;2854;42.692;23.364;2022-08-25T17:16:32;5.10;;;2.70;;
5662;SDS011;2854;42.692;23.364;2022-08-25T17:18:58;4.03;;;3.03;;
5662;SDS011;2854;42.692;23.364;2022-08-25T17:21:24;4.07;;;3.20;;
5662;SDS011;2854;42.692;23.364;2022-08-25T17:23:52;5.80;;;3.57;;
5662;SDS011;2854;42.692;23.364;2022-08-25T17:26:17;4.97;;;2.20;;
5662;SDS011;2854;42.692;23.364;2022-08-25T17:28:44;3.47;;;2.77;;
5662;SDS011;2854;42.692;23.364;2022-08-25T17:31:11;5.43;;;2.40;;
5662;SDS011;2854;42.692;23.364;2022-08-25T17:33:36;6.73;;;3.10;;
5662;SDS011;2854;42.692;23.364;2022-08-25T17:36:02;9.30;;;3.23;;
5662;SDS011;2854;42.692;23.364;2022-08-25T17:38:27;2.87;;;2.67;;
5662;SDS011;2854;42.692;23.364;2022-08-25T17:40:54;3.07;;;2.87;;
5662;SDS011;2854;42.692;23.364;2022-08-25T17:43:20;8.43;;;2.80;;
5662;SDS011;2854;42.692;23.364;2022-08-25T17:45:45;4.37;;;3.53;;
5662;SDS011;2854;42.692;23.364;2022-08-25T17:48:10;3.10;;;2.90;;
5662;SDS011;2854;42.692;23.364;2022-08-25T17:50:38;4.10;;;3.70;;
5662;SDS011;2854;42.692;23.364;2022-08-25T17:53:03;6.43;;;3.50;;
5662;SDS011;2854;42.692;23.364;2022-08-25T17:55:29;9.77;;;3.10;;
5662;SDS011;2854;42.692;23.364;2022-08-25T17:57:54;5.53;;;4.07;;
5662;SDS011;2854;42.692;23.364;2022-08-25T18:00:20;21.10;;;9.90;;
5662;SDS011;2854;42.692;23.364;2022-08-25T18:02:46;5.57;;;3.57;;